createdAt,value
2022-10-09T00:03:45.967Z,74.28
2022-10-09T00:09:17.670Z,74.57
2022-10-09T00:14:49.404Z,74.71
2022-10-09T00:20:21.053Z,74.98
2022-10-09T00:25:52.939Z,75.88
2022-10-09T00:31:24.581Z,76.19
2022-10-09T00:42:26.097Z,75.64
2022-10-09T00:47:57.473Z,75.64
2022-10-09T00:53:29.341Z,75.45
2022-10-09T00:59:00.772Z,75.53
2022-10-09T01:04:32.349Z,75.55
2022-10-09T01:10:03.957Z,75.51
2022-10-09T01:21:05.048Z,76.76
2022-10-09T01:26:36.624Z,76.54
2022-10-09T01:32:08.368Z,76.43
2022-10-09T01:37:40.115Z,76.48
2022-10-09T01:43:11.770Z,76.41
2022-10-09T01:48:43.392Z,76.32
2022-10-09T01:54:15.293Z,76.33
2022-10-09T01:59:47.039Z,76.23
2022-10-09T02:05:18.961Z,76.23
2022-10-09T02:10:51.151Z,76.13
2022-10-09T02:16:22.880Z,76.00
2022-10-09T02:21:54.724Z,75.96
2022-10-09T02:32:55.060Z,76.17
2022-10-09T02:43:56.425Z,76.87
2022-10-09T02:49:28.257Z,77.33
2022-10-09T02:54:59.921Z,77.49
2022-10-09T03:11:30.708Z,77.27
2022-10-09T03:17:02.404Z,77.47
2022-10-09T03:22:34.055Z,78.28
2022-10-09T03:28:06.018Z,78.15
2022-10-09T03:33:37.661Z,77.74
2022-10-09T03:39:09.424Z,77.60
2022-10-09T03:44:41.173Z,78.16
2022-10-09T03:50:12.951Z,78.06
2022-10-09T03:55:46.535Z,77.84
2022-10-09T04:06:47.906Z,78.24
2022-10-09T04:12:20.020Z,78.66
2022-10-09T04:17:51.622Z,79.01
2022-10-09T04:23:23.400Z,79.17
2022-10-09T04:28:55.371Z,79.07
2022-10-09T04:34:27.156Z,79.21
2022-10-09T04:39:59.067Z,78.94
2022-10-09T04:45:31.597Z,79.27
2022-10-09T05:02:02.340Z,79.55
2022-10-09T05:07:33.981Z,79.50
2022-10-09T05:13:06.083Z,79.37
2022-10-09T05:24:10.379Z,79.53
2022-10-09T05:35:09.384Z,79.81
2022-10-09T05:40:41.136Z,79.84
2022-10-09T05:46:12.902Z,80.03
2022-10-09T05:51:44.547Z,80.18
2022-10-09T05:57:16.469Z,80.30
2022-10-09T06:02:48.306Z,80.52
2022-10-09T06:08:19.901Z,80.66
2022-10-09T06:13:51.948Z,80.61
2022-10-09T06:19:23.871Z,80.69
2022-10-09T06:24:55.567Z,80.67
2022-10-09T06:30:27.391Z,80.67
2022-10-09T06:36:08.536Z,80.58
2022-10-09T06:41:30.907Z,80.57
2022-10-09T06:47:02.500Z,80.39
2022-10-09T06:52:34.533Z,80.29
2022-10-09T06:58:06.193Z,80.06
2022-10-09T07:03:37.925Z,79.57
2022-10-09T07:09:10.012Z,79.36
2022-10-09T07:14:41.739Z,78.72
2022-10-09T07:20:13.589Z,78.59
2022-10-09T07:22:27.144Z,78.33
2022-10-09T07:27:56.853Z,77.82
2022-10-09T07:38:58.071Z,77.65
2022-10-09T07:44:29.862Z,77.33
2022-10-09T07:50:01.683Z,77.05
2022-10-09T07:55:33.566Z,76.72
2022-10-09T08:01:05.310Z,76.70
2022-10-09T08:06:37.128Z,75.97
2022-10-09T08:17:39.820Z,75.69
2022-10-09T08:23:11.637Z,75.22
2022-10-09T08:28:43.654Z,74.12
2022-10-09T08:34:15.301Z,73.82
2022-10-09T08:39:46.716Z,73.55
2022-10-09T08:45:18.444Z,73.45
2022-10-09T08:50:49.915Z,72.68
2022-10-09T08:56:21.704Z,72.02
2022-10-09T09:01:53.192Z,71.88
2022-10-09T09:07:24.958Z,72.34
2022-10-09T09:12:56.912Z,71.78
2022-10-09T09:18:28.919Z,71.66
2022-10-09T09:24:00.446Z,71.66
2022-10-09T09:29:31.874Z,71.41
2022-10-09T09:35:03.486Z,70.96
2022-10-09T09:40:37.123Z,70.53
2022-10-09T09:46:06.960Z,70.24
2022-10-09T09:48:31.018Z,0.00
2022-10-09T09:54:02.314Z,69.42
2022-10-09T09:59:33.832Z,68.51
2022-10-09T10:05:05.729Z,67.98
2022-10-09T10:10:37.381Z,67.70
2022-10-09T10:16:08.884Z,66.58
2022-10-09T10:21:40.708Z,66.15
2022-10-09T10:27:12.518Z,65.05
2022-10-09T10:32:44.259Z,64.97
2022-10-09T10:38:16.113Z,64.31
2022-10-09T10:43:47.884Z,63.99
2022-10-09T10:49:19.662Z,63.47
2022-10-09T10:54:51.477Z,62.54
2022-10-09T11:00:23.281Z,61.20
2022-10-09T11:05:55.087Z,61.68
2022-10-09T11:16:56.304Z,61.08
2022-10-09T11:22:28.132Z,60.36
2022-10-09T11:28:00.213Z,60.09
2022-10-09T11:33:31.769Z,60.15
2022-10-09T11:39:03.187Z,60.26
2022-10-09T11:44:34.987Z,59.52
2022-10-09T11:50:06.490Z,60.22
2022-10-09T11:52:30.495Z,59.36
2022-10-09T11:58:01.948Z,59.49
2022-10-09T12:03:33.693Z,60.07
2022-10-09T12:09:05.264Z,59.82
2022-10-09T12:14:37.063Z,59.47
2022-10-09T12:20:08.907Z,59.60
2022-10-09T12:25:40.642Z,59.48
2022-10-09T12:31:12.710Z,59.57
2022-10-09T12:36:44.189Z,59.31
2022-10-09T12:42:15.451Z,58.93
2022-10-09T12:47:46.691Z,58.59
2022-10-09T12:58:47.679Z,58.86
2022-10-09T13:04:19.491Z,59.06
2022-10-09T13:09:50.935Z,58.67
2022-10-09T13:15:22.352Z,58.21
2022-10-09T13:20:54.125Z,58.64
2022-10-09T13:26:25.742Z,58.87
2022-10-09T13:31:57.314Z,58.91
2022-10-09T13:37:29.083Z,58.68
2022-10-09T13:43:00.905Z,58.82
2022-10-09T13:48:32.673Z,59.34
2022-10-09T13:54:04.616Z,59.15
2022-10-09T13:59:36.081Z,59.44
2022-10-09T14:05:07.691Z,59.55
2022-10-09T14:10:39.306Z,60.33
2022-10-09T14:16:11.943Z,60.66
2022-10-09T14:21:43.681Z,60.60
2022-10-09T14:27:15.443Z,60.56
2022-10-09T14:32:49.505Z,60.85
2022-10-09T14:38:20.713Z,61.14
2022-10-09T14:43:52.168Z,61.49
2022-10-09T14:49:23.953Z,61.28
2022-10-09T14:54:55.554Z,61.92
2022-10-09T15:00:26.735Z,61.99
2022-10-09T15:05:58.224Z,62.13
2022-10-09T15:11:30.082Z,62.15
2022-10-09T15:17:01.837Z,62.32
2022-10-09T15:22:32.977Z,62.58
2022-10-09T15:28:04.421Z,62.79
2022-10-09T15:33:35.860Z,62.67
2022-10-09T15:39:07.525Z,62.72
2022-10-09T15:44:38.867Z,62.63
2022-10-09T15:50:10.674Z,63.15
2022-10-09T15:55:42.499Z,63.26
2022-10-09T16:01:14.410Z,63.15
2022-10-09T16:06:45.680Z,63.11
2022-10-09T16:12:17.094Z,62.92
2022-10-09T16:17:48.993Z,62.93
2022-10-09T16:23:20.814Z,62.77
2022-10-09T16:28:52.453Z,63.05
2022-10-09T16:34:24.452Z,63.50
2022-10-09T16:39:55.746Z,63.76
2022-10-09T16:50:58.858Z,64.06
2022-10-09T16:56:30.615Z,64.32
2022-10-09T17:02:02.361Z,64.45
2022-10-09T17:07:33.979Z,64.39
2022-10-09T17:13:05.446Z,64.39
2022-10-09T17:18:37.239Z,64.44
2022-10-09T17:24:09.094Z,64.49
2022-10-09T17:29:40.835Z,64.69
2022-10-09T17:35:12.604Z,64.75
2022-10-09T17:40:44.152Z,65.02
2022-10-09T17:46:15.447Z,65.18
2022-10-09T17:51:46.795Z,65.54
2022-10-09T17:57:18.262Z,65.86
2022-10-09T18:02:49.659Z,65.85
2022-10-09T18:08:21.558Z,65.92
2022-10-09T18:13:53.313Z,66.11
2022-10-09T18:19:24.924Z,66.46
2022-10-09T18:24:56.716Z,66.69
2022-10-09T18:30:28.301Z,67.23
2022-10-09T18:35:59.968Z,67.61
2022-10-09T18:41:32.430Z,67.82
2022-10-09T18:49:25.512Z,68.03
2022-10-09T18:54:57.371Z,68.27
2022-10-09T19:00:28.862Z,68.20
2022-10-09T19:06:00.403Z,68.11
2022-10-09T19:11:32.152Z,68.25
2022-10-09T19:17:03.531Z,68.29
2022-10-09T19:22:35.044Z,68.58
2022-10-09T19:28:06.930Z,68.82
2022-10-09T19:33:38.382Z,68.73
2022-10-09T19:39:09.759Z,68.74
2022-10-09T19:44:41.228Z,68.87
2022-10-09T19:50:13.125Z,69.12
2022-10-09T19:55:44.554Z,69.34
2022-10-09T20:01:15.880Z,69.47
2022-10-09T20:06:47.477Z,69.55
2022-10-09T20:17:49.486Z,69.71
2022-10-09T20:23:20.699Z,69.75
2022-10-09T20:28:52.315Z,69.71
2022-10-09T20:39:52.802Z,69.50
2022-10-09T20:45:24.211Z,69.53
2022-10-09T20:50:55.562Z,69.54
2022-10-09T20:56:26.802Z,69.63
2022-10-09T21:01:58.229Z,69.74
2022-10-09T21:07:29.365Z,69.66
2022-10-09T21:13:00.804Z,69.53
2022-10-09T21:18:32.422Z,69.47
2022-10-09T21:24:03.642Z,69.34
2022-10-09T21:29:34.946Z,69.34
2022-10-09T21:35:06.231Z,69.34
2022-10-09T21:40:37.604Z,69.30
2022-10-09T21:46:08.859Z,69.50
2022-10-09T21:51:40.276Z,69.75
2022-10-09T21:57:11.980Z,69.70
2022-10-09T22:02:43.182Z,69.67
2022-10-09T22:08:14.348Z,69.67
2022-10-09T22:13:45.721Z,69.67
2022-10-09T22:19:17.113Z,69.65
2022-10-09T22:24:48.687Z,69.72
2022-10-09T22:30:20.001Z,69.85
2022-10-09T22:41:21.057Z,69.84
2022-10-09T22:46:52.743Z,69.88
2022-10-09T22:52:24.108Z,69.91
2022-10-09T22:57:55.378Z,70.43
2022-10-09T23:03:27.057Z,70.52
2022-10-09T23:14:28.116Z,70.42
2022-10-09T23:19:59.848Z,70.44
2022-10-09T23:25:31.421Z,70.43
2022-10-09T23:31:02.679Z,70.42
2022-10-09T23:36:34.183Z,70.46
2022-10-09T23:38:57.630Z,70.44
2022-10-09T23:44:29.084Z,70.50
2022-10-09T23:50:00.954Z,70.57
2022-10-09T23:55:32.988Z,70.57
